Wittell, Nevada
Current Conditions -  °F | °C
As of 8:53 AM on Friday 24 Oct 2014 (Local Time) from KTVL Reporting Station
Clear Clear  
Wind Chill: 58°   Ceiling: Unl
Heat Index: 58°   Visibility: 10mi
Dew Point: 24°   Wind: 10mph
Humidity: 27%   Direction: 200°SSW
Pressure: 30.15"   Gusts: 18mph
Location:  39.0164°N, 119.925°W
Report Text: KTVL 241553Z AUTO 20009G16KT 10SM CLR 14/M04 A3015 RMK AO2 SLP173 T01441044
Loading
Personal Weather Stations






























Interactive Weather Map
Tropical Storm Tracking
New forecast layout! Learn more

10-Day Weather Forecast

Advertisements
Track Severe Weather on mobile